Time;durP1;ratioP1;P1;durP2;ratioP2;P2;SDS_P1;SDS_P2;PMS_P1;PMS_P2;Temp;Humidity;BMP_temperature;BMP_pressure;BME280_temperature;BME280_humidity;BME280_pressure;Samples;Min_cycle;Max_cycle;Signal;HPM_P1;HPM_P2
2023/07/13 00:01:49;;;;;;;25.80;23.98;;;20.60;99.90;;;;;;5011410;28;20045;-75
2023/07/13 00:04:19;;;;;;;23.73;21.83;;;20.50;99.90;;;;;;5011676;28;20498;-75
2023/07/13 00:06:46;;;;;;;25.77;23.88;;;20.40;99.90;;;;;;5011767;28;20484;-75
2023/07/13 00:09:13;;;;;;;25.65;23.75;;;20.50;99.90;;;;;;5013048;28;20042;-75
2023/07/13 00:11:40;;;;;;;25.42;23.73;;;20.60;99.90;;;;;;5011582;28;20037;-75
2023/07/13 00:14:06;;;;;;;31.60;29.70;;;20.60;99.90;;;;;;5013137;28;20046;-75
2023/07/13 00:16:34;;;;;;;26.73;25.00;;;20.60;99.90;;;;;;5011157;28;20407;-75
2023/07/13 00:19:00;;;;;;;30.35;28.23;;;20.60;99.90;;;;;;5011381;28;20364;-75
2023/07/13 00:21:26;;;;;;;20.33;18.73;;;20.50;99.90;;;;;;5011562;28;20026;-75
2023/07/13 00:23:52;;;;;;;27.25;25.38;;;20.50;99.90;;;;;;5011761;28;20057;-74
2023/07/13 00:26:18;;;;;;;23.20;21.80;;;20.50;99.90;;;;;;4995028;28;20041;-75
2023/07/13 00:28:44;;;;;;;18.02;16.52;;;20.40;99.90;;;;;;5011598;28;20038;-75
2023/07/13 00:31:12;;;;;;;25.30;23.42;;;20.20;99.90;;;;;;5010778;28;20030;-75
2023/07/13 00:33:38;;;;;;;19.90;18.50;;;20.30;99.90;;;;;;5011314;28;20030;-75
2023/07/13 00:36:04;;;;;;;17.85;16.52;;;20.30;99.90;;;;;;5012274;28;20041;-75
2023/07/13 00:38:30;;;;;;;19.85;18.25;;;20.30;99.90;;;;;;5011435;28;20640;-74
2023/07/13 00:40:56;;;;;;;17.67;16.35;;;20.20;99.90;;;;;;5011276;28;20037;-75
2023/07/13 00:43:24;;;;;;;17.55;16.13;;;20.20;99.90;;;;;;5012916;28;20038;-75
2023/07/13 00:45:50;;;;;;;16.65;15.18;;;20.20;99.90;;;;;;5011715;28;20056;-75
2023/07/13 00:48:21;;;;;;;17.27;15.68;;;20.20;99.90;;;;;;5012147;28;20387;-75
2023/07/13 00:50:49;;;;;;;18.98;17.30;;;20.20;99.90;;;;;;5012219;28;20049;-75
2023/07/13 00:53:15;;;;;;;23.17;21.42;;;20.20;99.90;;;;;;5011219;28;20037;-75
2023/07/13 00:55:42;;;;;;;23.65;21.80;;;20.10;99.90;;;;;;4994983;28;20506;-75
2023/07/13 00:58:08;;;;;;;18.05;16.52;;;20.10;99.90;;;;;;5011261;28;20101;-75
2023/07/13 01:00:35;;;;;;;31.42;29.48;;;20.10;99.90;;;;;;5010547;28;20514;-74
2023/07/13 01:03:04;;;;;;;51.85;48.65;;;20.10;99.90;;;;;;5010943;28;20030;-75
2023/07/13 01:05:31;;;;;;;28.48;26.58;;;20.10;99.90;;;;;;5011054;28;20034;-75
2023/07/13 01:07:58;;;;;;;32.58;30.42;;;20.10;99.90;;;;;;5015207;28;20471;-75
2023/07/13 01:10:24;;;;;;;25.05;23.05;;;20.10;99.90;;;;;;5015089;28;20038;-75
2023/07/13 01:12:50;;;;;;;22.38;20.27;;;20.10;99.90;;;;;;5016237;28;20037;-75
2023/07/13 01:15:36;;;;;;;22.85;21.10;;;20.10;99.90;;;;;;5014439;28;20049;-75
2023/07/13 01:18:02;;;;;;;19.80;17.85;;;20.10;99.90;;;;;;5015901;28;20030;-75
2023/07/13 01:20:28;;;;;;;20.83;18.83;;;20.10;99.90;;;;;;5014702;28;20034;-75
2023/07/13 01:22:54;;;;;;;19.10;17.50;;;20.10;99.90;;;;;;5014893;28;20025;-75
2023/07/13 01:25:21;;;;;;;24.58;22.85;;;20.00;99.90;;;;;;5015868;28;20045;-75
2023/07/13 01:27:47;;;;;;;20.52;19.13;;;20.00;99.90;;;;;;5014992;28;20034;-76
2023/07/13 01:30:13;;;;;;;19.35;17.80;;;20.00;99.90;;;;;;5014075;28;20033;-75
2023/07/13 01:32:41;;;;;;;60.65;57.22;;;20.00;99.90;;;;;;5014552;28;20041;-75
2023/07/13 01:35:07;;;;;;;11.90;10.77;;;20.00;99.90;;;;;;5015966;28;20041;-75
2023/07/13 01:37:35;;;;;;;23.50;20.88;;;20.00;99.90;;;;;;5014294;28;20045;-75
2023/07/13 01:40:04;;;;;;;12.05;10.85;;;20.00;99.90;;;;;;5014813;28;20037;-75
2023/07/13 01:42:30;;;;;;;13.43;12.05;;;19.90;99.90;;;;;;5014577;28;20037;-74
2023/07/13 01:44:56;;;;;;;54.47;51.35;;;19.90;99.90;;;;;;5014643;28;20518;-75
2023/07/13 01:47:23;;;;;;;16.55;14.90;;;19.90;99.90;;;;;;5013356;28;20040;-75
2023/07/13 01:49:51;;;;;;;19.90;18.20;;;19.90;99.90;;;;;;4997833;28;20046;-75
2023/07/13 01:52:17;;;;;;;21.13;19.52;;;19.80;99.90;;;;;;5014267;28;20030;-75
2023/07/13 01:54:43;;;;;;;15.43;13.50;;;19.80;99.90;;;;;;5014416;28;20065;-75
2023/07/13 01:57:10;;;;;;;11.57;8.50;;;19.80;99.90;;;;;;5014187;28;20037;-74
2023/07/13 01:59:36;;;;;;;12.43;8.75;;;19.80;99.90;;;;;;5014968;28;20034;-75
2023/07/13 02:02:02;;;;;;;12.02;8.98;;;19.70;99.90;;;;;;5008107;28;20052;-75
2023/07/13 02:04:28;;;;;;;11.05;7.90;;;19.60;99.90;;;;;;5007673;28;20026;-75
2023/07/13 02:06:55;;;;;;;24.38;22.23;;;19.70;99.90;;;;;;5013689;28;20034;-75
2023/07/13 02:09:21;;;;;;;15.98;14.70;;;19.60;99.90;;;;;;5012805;28;20030;-75
2023/07/13 02:11:48;;;;;;;20.40;18.90;;;19.60;99.90;;;;;;5012731;28;20042;-75
2023/07/13 02:14:15;;;;;;;19.67;18.17;;;19.60;99.90;;;;;;5013333;28;20045;-74
2023/07/13 02:16:41;;;;;;;17.10;15.70;;;19.60;99.90;;;;;;5011912;28;20038;-75
2023/07/13 02:19:08;;;;;;;15.95;14.55;;;19.50;99.90;;;;;;5011920;28;20033;-75
2023/07/13 02:21:34;;;;;;;16.10;14.65;;;19.50;99.90;;;;;;5012324;28;20033;-75
2023/07/13 02:24:00;;;;;;;16.70;15.23;;;19.50;99.90;;;;;;5013672;28;20410;-75
2023/07/13 02:26:26;;;;;;;16.65;14.82;;;19.50;99.90;;;;;;5012105;28;20472;-75
2023/07/13 02:28:52;;;;;;;16.75;15.35;;;19.50;99.90;;;;;;5011981;28;20034;-75
2023/07/13 02:31:19;;;;;;;13.95;12.77;;;19.40;99.90;;;;;;5012789;28;20038;-75
2023/07/13 02:33:45;;;;;;;14.43;11.63;;;19.40;99.90;;;;;;5010595;28;20041;-75
2023/07/13 02:36:11;;;;;;;10.55;9.38;;;19.40;99.90;;;;;;5010138;28;20022;-75
2023/07/13 02:38:38;;;;;;;13.13;11.85;;;19.40;99.90;;;;;;4995305;28;20060;-75
2023/07/13 02:41:05;;;;;;;14.05;12.65;;;19.40;99.90;;;;;;5013204;28;20037;-75
2023/07/13 02:43:31;;;;;;;15.02;13.55;;;19.40;99.90;;;;;;5013173;28;20479;-74
2023/07/13 02:46:03;;;;;;;16.80;15.27;;;19.40;99.90;;;;;;4996493;28;20037;-75
2023/07/13 02:48:30;;;;;;;13.10;11.57;;;19.40;99.90;;;;;;5013264;28;20467;-73
2023/07/13 02:50:56;;;;;;;9.40;8.20;;;19.40;99.90;;;;;;5014412;28;20057;-75
2023/07/13 02:53:22;;;;;;;9.43;8.55;;;19.30;99.90;;;;;;5014400;28;20037;-75
2023/07/13 02:55:48;;;;;;;11.13;6.80;;;19.20;99.90;;;;;;5014294;28;20467;-75
2023/07/13 02:58:17;;;;;;;7.28;6.43;;;19.20;99.90;;;;;;5013993;28;20037;-75
2023/07/13 03:00:46;;;;;;;11.45;7.28;;;19.20;99.90;;;;;;5012067;28;20026;-75
2023/07/13 03:03:14;;;;;;;9.98;6.55;;;19.10;99.90;;;;;;5014311;28;20030;-74
2023/07/13 03:05:41;;;;;;;9.35;7.13;;;19.10;99.90;;;;;;5012797;28;20030;-75
2023/07/13 03:08:11;;;;;;;10.88;7.00;;;19.10;99.90;;;;;;5014128;28;20029;-74
2023/07/13 03:10:39;;;;;;;8.93;6.78;;;19.10;99.90;;;;;;5012661;28;20033;-75
2023/07/13 03:13:05;;;;;;;10.32;6.50;;;19.10;99.90;;;;;;5012679;28;20022;-75
2023/07/13 03:15:31;;;;;;;12.85;6.90;;;19.10;99.90;;;;;;4995637;28;20050;-75
2023/07/13 03:17:57;;;;;;;9.52;6.68;;;19.10;99.90;;;;;;5014170;28;20026;-75
2023/07/13 03:20:23;;;;;;;9.50;5.95;;;19.00;99.90;;;;;;5013790;28;20030;-75
2023/07/13 03:22:49;;;;;;;8.75;6.45;;;19.00;99.90;;;;;;5012832;28;20494;-75
2023/07/13 03:25:16;;;;;;;10.18;6.55;;;19.00;99.90;;;;;;5012477;28;20030;-75
2023/07/13 03:27:42;;;;;;;10.10;7.00;;;18.90;99.90;;;;;;5012337;28;20033;-74
2023/07/13 03:30:08;;;;;;;9.57;6.32;;;18.90;99.90;;;;;;4994804;28;20034;-75
2023/07/13 03:32:34;;;;;;;13.45;7.78;;;18.90;99.90;;;;;;4992814;28;20498;-75
2023/07/13 03:35:01;;;;;;;9.82;7.68;;;18.80;99.90;;;;;;4993165;28;20042;-75
2023/07/13 03:37:28;;;;;;;11.60;7.63;;;18.80;99.90;;;;;;5011174;28;20030;-75
2023/07/13 03:39:54;;;;;;;11.65;7.15;;;18.80;99.90;;;;;;4996096;28;20050;-75
2023/07/13 03:42:20;;;;;;;9.05;6.32;;;18.80;99.90;;;;;;5013132;28;20037;-75
2023/07/13 03:44:52;;;;;;;13.50;8.63;;;18.70;99.90;;;;;;5013667;28;20034;-74
2023/07/13 03:47:18;;;;;;;10.73;7.03;;;18.60;99.90;;;;;;5012790;28;20045;-75
2023/07/13 03:49:45;;;;;;;7.25;5.90;;;18.70;99.90;;;;;;5013336;28;20407;-75
2023/07/13 03:52:12;;;;;;;13.30;6.65;;;18.60;99.90;;;;;;5013260;28;20090;-75
2023/07/13 03:54:38;;;;;;;14.60;6.88;;;18.60;99.90;;;;;;5012150;28;20037;-75
2023/07/13 03:57:04;;;;;;;9.18;6.18;;;18.60;99.90;;;;;;5013390;28;20042;-75
2023/07/13 03:59:30;;;;;;;12.73;6.63;;;18.70;99.90;;;;;;5012145;28;20076;-75
2023/07/13 04:01:56;;;;;;;10.43;6.25;;;18.70;99.90;;;;;;5011354;28;20030;-75
2023/07/13 04:04:22;;;;;;;8.50;6.00;;;18.70;99.90;;;;;;5012182;28;20391;-75
2023/07/13 04:06:48;;;;;;;7.75;6.20;;;18.70;99.90;;;;;;5012670;28;20041;-74
2023/07/13 04:09:14;;;;;;;10.95;6.20;;;18.60;99.90;;;;;;5011971;28;20494;-74
2023/07/13 04:11:40;;;;;;;10.15;6.45;;;18.60;99.90;;;;;;5012570;28;20056;-75
2023/07/13 04:14:07;;;;;;;15.77;7.28;;;18.60;99.90;;;;;;5011869;28;20057;-75
2023/07/13 04:16:33;;;;;;;10.80;6.25;;;18.70;99.90;;;;;;5012464;28;20034;-75
2023/07/13 04:18:59;;;;;;;10.77;6.47;;;18.60;99.90;;;;;;5011735;28;20045;-75
2023/07/13 04:21:29;;;;;;;11.70;6.55;;;18.60;99.90;;;;;;5011482;28;20368;-75
2023/07/13 04:23:55;;;;;;;9.75;6.63;;;18.60;99.90;;;;;;5011783;28;20390;-75
2023/07/13 04:26:22;;;;;;;10.65;6.72;;;18.60;99.90;;;;;;5011250;28;20578;-75
2023/07/13 04:28:49;;;;;;;12.25;7.93;;;18.50;99.90;;;;;;5013088;28;20097;-75
2023/07/13 04:31:15;;;;;;;13.70;7.63;;;18.40;99.90;;;;;;5012161;28;20038;-75
2023/07/13 04:33:42;;;;;;;9.18;8.07;;;18.40;99.90;;;;;;5011452;28;20376;-75
2023/07/13 04:36:09;;;;;;;14.13;8.13;;;18.40;99.90;;;;;;5012770;28;20498;-75
2023/07/13 04:38:35;;;;;;;11.45;8.75;;;18.40;99.90;;;;;;5011219;28;20056;-75
2023/07/13 04:41:07;;;;;;;12.63;11.40;;;18.30;99.90;;;;;;5011916;28;20038;-75
2023/07/13 04:43:33;;;;;;;13.10;11.73;;;18.40;99.90;;;;;;5011397;28;20031;-75
2023/07/13 04:46:07;;;;;;;10.90;9.85;;;18.40;99.90;;;;;;5010825;28;20076;-75
2023/07/13 04:48:34;;;;;;;13.00;10.68;;;18.40;99.90;;;;;;5012242;28;20022;-74
2023/07/13 04:51:01;;;;;;;13.50;12.20;;;18.40;99.90;;;;;;5011419;28;20104;-75
2023/07/13 04:53:28;;;;;;;11.68;8.05;;;18.50;99.90;;;;;;5011376;28;20038;-75
2023/07/13 04:55:54;;;;;;;10.15;9.20;;;18.40;99.90;;;;;;5010689;28;20042;-74
2023/07/13 04:58:21;;;;;;;11.68;8.45;;;18.40;99.90;;;;;;5011407;28;20494;-74
2023/07/13 05:00:47;;;;;;;12.75;8.23;;;18.40;99.90;;;;;;5010592;28;20034;-74
2023/07/13 05:03:13;;;;;;;12.43;6.85;;;18.40;99.90;;;;;;5012456;28;20034;-74
2023/07/13 05:05:39;;;;;;;10.13;7.47;;;18.30;99.90;;;;;;5010939;28;20057;-74
2023/07/13 05:08:07;;;;;;;11.57;7.25;;;18.40;99.90;;;;;;5011144;28;20037;-75
2023/07/13 05:10:33;;;;;;;10.93;6.72;;;18.50;99.90;;;;;;5011766;28;20371;-75
2023/07/13 05:12:59;;;;;;;10.90;7.68;;;18.50;99.90;;;;;;5011122;28;20045;-75
2023/07/13 05:15:26;;;;;;;9.25;7.90;;;18.60;99.90;;;;;;5010486;28;20109;-74
2023/07/13 05:17:52;;;;;;;13.07;8.00;;;18.60;99.90;;;;;;5011078;28;20038;-74
2023/07/13 05:20:18;;;;;;;13.98;10.63;;;18.70;99.90;;;;;;5012085;28;20360;-75
2023/07/13 05:22:46;;;;;;;10.68;9.43;;;18.80;99.90;;;;;;5010647;28;20034;-74
2023/07/13 05:25:12;;;;;;;14.88;13.63;;;18.90;99.90;;;;;;5010776;28;20029;-75
2023/07/13 05:27:38;;;;;;;12.27;11.07;;;19.00;99.90;;;;;;5010764;28;20038;-75
2023/07/13 05:30:05;;;;;;;13.50;11.68;;;19.10;99.90;;;;;;5011834;28;20030;-74
2023/07/13 05:32:32;;;;;;;13.23;11.55;;;19.20;99.90;;;;;;5011849;28;20041;-74
2023/07/13 05:34:58;;;;;;;13.27;12.07;;;19.40;99.90;;;;;;5010851;28;20398;-75
2023/07/13 05:37:24;;;;;;;10.50;8.75;;;19.50;99.90;;;;;;5011332;28;20049;-75
2023/07/13 05:39:51;;;;;;;11.32;10.15;;;19.60;99.90;;;;;;5012154;28;20430;-74
2023/07/13 05:42:17;;;;;;;11.10;9.65;;;19.80;99.90;;;;;;5010740;28;20399;-75
2023/07/13 05:44:43;;;;;;;12.50;9.65;;;20.00;99.90;;;;;;5011969;28;20026;-75
2023/07/13 05:47:09;;;;;;;19.33;17.50;;;20.10;99.90;;;;;;5011230;28;20391;-75
2023/07/13 05:49:35;;;;;;;13.18;12.15;;;20.10;99.90;;;;;;5011784;28;20058;-75
2023/07/13 05:52:01;;;;;;;15.98;14.55;;;20.20;99.90;;;;;;5010082;28;20037;-75
2023/07/13 05:54:27;;;;;;;18.45;16.70;;;20.30;99.90;;;;;;5014998;28;20371;-75
2023/07/13 05:56:53;;;;;;;20.52;18.70;;;20.50;99.90;;;;;;5015426;28;20042;-74
2023/07/13 05:59:20;;;;;;;23.65;21.85;;;20.60;99.90;;;;;;5014407;28;20037;-74
2023/07/13 06:01:46;;;;;;;28.35;26.25;;;20.70;99.90;;;;;;5013569;28;20038;-75
2023/07/13 06:04:12;;;;;;;30.50;28.65;;;20.80;99.90;;;;;;5015531;28;20030;-74
2023/07/13 06:06:38;;;;;;;34.00;31.80;;;21.00;99.90;;;;;;5013645;28;20033;-74
2023/07/13 06:09:04;;;;;;;32.95;30.42;;;21.10;99.90;;;;;;5014301;28;20041;-75
2023/07/13 06:11:30;;;;;;;32.47;30.42;;;21.20;99.90;;;;;;5014870;28;20529;-75
2023/07/13 06:13:56;;;;;;;34.22;31.83;;;21.20;99.90;;;;;;5014062;28;20029;-75
2023/07/13 06:16:22;;;;;;;32.95;30.60;;;21.30;99.90;;;;;;5013343;28;20053;-75
2023/07/13 06:18:48;;;;;;;34.70;32.15;;;21.30;99.90;;;;;;5015082;28;20029;-74
2023/07/13 06:21:16;;;;;;;32.67;30.80;;;21.30;99.90;;;;;;5013324;28;20518;-74
2023/07/13 06:23:43;;;;;;;32.20;30.00;;;21.30;99.90;;;;;;5014071;28;20022;-75
2023/07/13 06:26:09;;;;;;;31.23;28.77;;;21.30;99.90;;;;;;5013508;28;20041;-75
2023/07/13 06:28:35;;;;;;;30.17;28.08;;;21.30;99.90;;;;;;5014922;28;20026;-75
2023/07/13 06:31:02;;;;;;;28.75;26.80;;;21.30;99.90;;;;;;5013014;28;20037;-75
2023/07/13 06:33:28;;;;;;;29.85;27.17;;;21.20;99.90;;;;;;5013866;28;20471;-75
2023/07/13 06:35:56;;;;;;;26.95;24.92;;;21.10;99.90;;;;;;4996296;28;20073;-75
2023/07/13 06:38:22;;;;;;;25.67;23.52;;;21.00;99.90;;;;;;5013767;28;20554;-75
2023/07/13 06:40:49;;;;;;;32.20;29.75;;;20.90;99.90;;;;;;5013327;28;20030;-75
2023/07/13 06:43:15;;;;;;;22.85;20.77;;;20.90;99.90;;;;;;5014794;28;20026;-75
2023/07/13 06:45:42;;;;;;;22.23;20.42;;;20.90;99.90;;;;;;5012641;28;20038;-75
2023/07/13 06:48:08;;;;;;;20.13;18.65;;;20.80;99.90;;;;;;5013353;28;20030;-75
2023/07/13 06:50:35;;;;;;;18.75;17.15;;;20.70;99.90;;;;;;5012629;28;20430;-75
2023/07/13 06:53:01;;;;;;;15.45;14.05;;;20.70;99.90;;;;;;5014672;28;20037;-76
2023/07/13 06:55:27;;;;;;;24.67;23.08;;;20.70;99.90;;;;;;5012669;28;20126;-75
2023/07/13 06:57:53;;;;;;;22.92;21.05;;;20.70;99.90;;;;;;5013225;28;20021;-75
2023/07/13 07:00:19;;;;;;;16.08;13.80;;;20.70;99.90;;;;;;5012443;28;20367;-75
2023/07/13 07:02:45;;;;;;;14.35;12.57;;;20.70;99.90;;;;;;5014264;28;20033;-75
2023/07/13 07:05:11;;;;;;;15.00;12.75;;;20.60;99.90;;;;;;5013642;28;20026;-75
2023/07/13 07:07:37;;;;;;;16.80;12.65;;;20.70;99.90;;;;;;4994518;28;20491;-75
2023/07/13 07:10:04;;;;;;;15.50;13.32;;;20.80;99.90;;;;;;4994656;28;20038;-75
2023/07/13 07:12:30;;;;;;;17.95;15.02;;;20.80;99.90;;;;;;4993081;28;20491;-74
2023/07/13 07:14:56;;;;;;;15.65;14.13;;;20.80;99.90;;;;;;5009423;28;20049;-75
2023/07/13 07:17:22;;;;;;;16.30;14.48;;;20.80;99.90;;;;;;5011682;28;20057;-75
2023/07/13 07:19:48;;;;;;;17.05;15.40;;;20.90;99.90;;;;;;5013732;28;20025;-75
2023/07/13 07:22:14;;;;;;;16.02;14.45;;;20.90;99.90;;;;;;5013631;28;20057;-75
2023/07/13 07:24:41;;;;;;;17.17;15.57;;;21.00;99.90;;;;;;5012835;28;20022;-75
2023/07/13 07:27:07;;;;;;;18.77;16.90;;;21.00;99.90;;;;;;5013883;28;20034;-75
2023/07/13 07:29:33;;;;;;;19.17;17.45;;;21.00;99.90;;;;;;5014248;28;20030;-76
2023/07/13 07:32:00;;;;;;;20.88;19.17;;;21.00;99.90;;;;;;5012088;28;20038;-75
2023/07/13 07:34:26;;;;;;;21.75;19.90;;;21.10;99.90;;;;;;5011857;28;20034;-75
2023/07/13 07:36:53;;;;;;;23.50;21.17;;;21.20;99.90;;;;;;5013283;28;20068;-75
2023/07/13 07:39:19;;;;;;;21.42;19.58;;;21.20;99.90;;;;;;5012401;28;20022;-75
2023/07/13 07:41:45;;;;;;;22.80;20.80;;;21.20;99.90;;;;;;5012174;28;20364;-75
2023/07/13 07:44:11;;;;;;;20.58;18.70;;;21.10;99.90;;;;;;5013512;28;20026;-75
2023/07/13 07:46:40;;;;;;;21.77;19.83;;;21.20;99.90;;;;;;5012845;28;20034;-75
2023/07/13 07:49:06;;;;;;;21.35;19.67;;;21.30;99.90;;;;;;5011888;28;20419;-75
2023/07/13 07:51:33;;;;;;;22.73;20.75;;;21.30;99.90;;;;;;5013112;28;20030;-75
2023/07/13 07:53:59;;;;;;;23.45;21.17;;;21.40;99.90;;;;;;5013546;28;20368;-75
2023/07/13 07:56:25;;;;;;;23.92;21.88;;;21.40;99.90;;;;;;5012915;28;20373;-75
2023/07/13 07:58:52;;;;;;;24.00;22.10;;;21.40;99.90;;;;;;5013299;28;20403;-75
2023/07/13 08:01:18;;;;;;;25.05;23.17;;;21.40;99.90;;;;;;5012573;28;20044;-75
2023/07/13 08:03:44;;;;;;;26.05;23.63;;;21.40;99.90;;;;;;5011851;28;20038;-75
2023/07/13 08:06:10;;;;;;;26.17;24.20;;;21.50;99.90;;;;;;5012937;28;20045;-74
2023/07/13 08:08:36;;;;;;;27.65;25.25;;;21.50;99.90;;;;;;5011879;28;20042;-75
2023/07/13 08:11:03;;;;;;;29.90;27.83;;;21.50;99.90;;;;;;5011662;28;20041;-75
2023/07/13 08:13:30;;;;;;;30.45;28.35;;;21.60;99.90;;;;;;5013088;28;20022;-75
2023/07/13 08:15:56;;;;;;;35.10;33.05;;;21.70;99.90;;;;;;5010466;28;20076;-75
2023/07/13 08:18:22;;;;;;;36.28;34.03;;;21.70;99.90;;;;;;5012657;28;20026;-75
2023/07/13 08:20:48;;;;;;;44.25;41.63;;;21.80;99.90;;;;;;5011379;28;20061;-75
2023/07/13 08:23:16;;;;;;;33.28;30.92;;;21.90;99.90;;;;;;5011813;28;20487;-75
2023/07/13 08:25:42;;;;;;;32.45;30.42;;;21.80;99.90;;;;;;5012726;28;20384;-75
2023/07/13 08:28:08;;;;;;;31.77;29.63;;;21.90;99.90;;;;;;5012830;28;20033;-75
2023/07/13 08:30:36;;;;;;;31.63;29.60;;;21.90;99.90;;;;;;5010926;28;20041;-75
2023/07/13 08:33:02;;;;;;;32.80;30.73;;;22.00;99.90;;;;;;5011391;28;20018;-75
2023/07/13 08:35:28;;;;;;;32.85;30.85;;;22.00;99.90;;;;;;5012464;28;20041;-75
2023/07/13 08:37:54;;;;;;;33.55;31.25;;;22.20;99.90;;;;;;5012618;28;20033;-75
2023/07/13 08:40:24;;;;;;;32.40;30.30;;;22.30;99.90;;;;;;5012352;28;20030;-75
2023/07/13 08:42:58;;;;;;;34.92;32.50;;;22.30;99.90;;;;;;5011568;28;20421;-75
2023/07/13 08:45:33;;;;;;;34.80;32.80;;;22.40;99.90;;;;;;5010720;28;20026;-75
2023/07/13 08:48:05;;;;;;;38.10;35.70;;;22.40;99.90;;;;;;5010908;28;20517;-74
2023/07/13 08:50:34;;;;;;;45.55;42.88;;;22.40;99.90;;;;;;5010946;28;20483;-74
2023/07/13 08:53:00;;;;;;;54.95;51.53;;;22.20;99.90;;;;;;5011417;28;20030;-75
2023/07/13 08:55:29;;;;;;;41.45;39.20;;;22.10;99.90;;;;;;4994826;28;20056;-75
2023/07/13 08:58:28;;;;;;;51.13;48.25;;;22.20;99.90;;;;;;5011254;28;20018;-75
2023/07/13 09:01:03;;;;;;;62.67;59.13;;;22.30;99.90;;;;;;4969972;28;20035;-75
2023/07/13 09:03:49;;;;;;;72.43;68.43;;;22.40;99.90;;;;;;4970993;28;20045;-75
2023/07/13 09:06:15;;;;;;;79.50;75.22;;;22.30;99.90;;;;;;4955191;28;20453;-75
2023/07/13 09:08:41;;;;;;;81.13;76.63;;;22.40;99.90;;;;;;4970823;28;20527;-75
2023/07/13 09:11:29;;;;;;;99.50;94.40;;;22.40;99.90;;;;;;4970991;28;20062;-74
2023/07/13 09:14:04;;;;;;;107.90;102.40;;;22.40;99.90;;;;;;4955053;28;20035;-75
2023/07/13 09:16:30;;;;;;;115.57;109.55;;;22.50;99.90;;;;;;4954584;28;20138;-74
2023/07/13 09:19:02;;;;;;;109.53;103.88;;;22.60;99.90;;;;;;4954907;28;20038;-75
2023/07/13 09:21:39;;;;;;;115.43;109.32;;;22.80;99.90;;;;;;4955252;28;20035;-75
2023/07/13 09:24:24;;;;;;;119.85;113.78;;;23.00;99.90;;;;;;4955176;28;20034;-75
2023/07/13 09:26:50;;;;;;;116.40;110.50;;;23.30;99.90;;;;;;4971357;28;20042;-75
2023/07/13 09:29:23;;;;;;;115.28;109.15;;;23.40;99.90;;;;;;4958388;28;20396;-74
2023/07/13 09:31:52;;;;;;;117.13;111.13;;;23.50;99.90;;;;;;4958510;28;20039;-75
2023/07/13 09:34:18;;;;;;;116.75;110.68;;;23.70;99.90;;;;;;4958584;28;20027;-75
2023/07/13 09:36:44;;;;;;;126.53;120.22;;;23.70;99.90;;;;;;4997756;28;20069;-75
2023/07/13 09:39:31;;;;;;;111.90;106.22;;;23.80;99.90;;;;;;5015919;28;20049;-73
2023/07/13 09:42:01;;;;;;;111.97;105.95;;;23.70;99.90;;;;;;5014341;28;20117;-75
2023/07/13 09:44:35;;;;;;;111.00;105.32;;;23.70;99.90;;;;;;5014456;28;20018;-75
2023/07/13 09:47:01;;;;;;;123.32;116.97;;;23.70;99.90;;;;;;5015009;28;20049;-75
2023/07/13 09:49:33;;;;;;;111.75;105.82;;;23.70;99.90;;;;;;5015467;28;20053;-75
2023/07/13 09:52:02;;;;;;;117.95;112.05;;;23.50;99.90;;;;;;5014366;28;20022;-75
2023/07/13 09:54:29;;;;;;;106.43;100.95;;;23.50;99.90;;;;;;5015821;28;20037;-75
2023/07/13 09:56:58;;;;;;;113.82;107.90;;;23.50;99.90;;;;;;5013964;28;20038;-75
2023/07/13 09:59:29;;;;;;;116.30;110.10;;;23.50;99.90;;;;;;5014089;28;20029;-75
2023/07/13 10:01:55;;;;;;;113.47;107.57;;;23.50;99.90;;;;;;5013203;28;20037;-75
2023/07/13 10:04:27;;;;;;;121.72;115.47;;;23.60;99.90;;;;;;5014305;28;20037;-75
2023/07/13 10:07:05;;;;;;;126.90;120.03;;;23.70;99.90;;;;;;5013950;28;20037;-75
2023/07/13 10:09:32;;;;;;;119.85;113.55;;;23.70;99.90;;;;;;5014216;28;20037;-75
2023/07/13 10:11:58;;;;;;;97.00;92.07;;;23.80;99.90;;;;;;5015134;28;20142;-74
2023/07/13 10:14:25;;;;;;;103.07;97.70;;;24.00;99.90;;;;;;5014848;28;20468;-75
2023/07/13 10:16:58;;;;;;;98.50;93.13;;;24.20;99.90;;;;;;5013026;28;20045;-75
2023/07/13 10:19:26;;;;;;;77.53;73.53;;;24.40;99.90;;;;;;5014053;28;20057;-75
2023/07/13 10:21:56;;;;;;;56.13;52.88;;;24.40;99.90;;;;;;5013721;28;20025;-75
2023/07/13 10:24:27;;;;;;;70.50;66.68;;;24.50;99.90;;;;;;5013972;28;20494;-75
2023/07/13 10:27:00;;;;;;;70.07;66.38;;;24.40;99.90;;;;;;5013527;28;20029;-75
2023/07/13 10:29:27;;;;;;;94.25;89.43;;;24.40;99.90;;;;;;5013514;28;20379;-75
2023/07/13 10:31:53;;;;;;;180.68;171.60;;;24.60;99.90;;;;;;5012808;28;20041;-75
2023/07/13 10:34:19;;;;;;;43.55;41.15;;;24.70;99.90;;;;;;5013738;28;20037;-74
2023/07/13 10:36:47;;;;;;;54.15;51.15;;;24.90;99.90;;;;;;5013271;28;20053;-75
2023/07/13 10:39:22;;;;;;;25.23;23.63;;;25.00;99.90;;;;;;5014454;28;20042;-74
2023/07/13 10:41:54;;;;;;;25.27;23.52;;;25.00;99.50;;;;;;4997448;28;20042;-75
2023/07/13 10:44:26;;;;;;;20.20;18.80;;;25.00;99.60;;;;;;5013320;28;20038;-75
2023/07/13 10:46:58;;;;;;;25.48;23.83;;;25.00;99.30;;;;;;5012761;28;20037;-75
2023/07/13 10:49:24;;;;;;;28.70;26.70;;;25.10;99.40;;;;;;4978283;28;20400;-75
2023/07/13 10:51:51;;;;;;;25.73;24.25;;;25.10;99.60;;;;;;4991001;28;20037;-75
2023/07/13 10:54:18;;;;;;;20.83;19.38;;;25.10;99.40;;;;;;5013373;28;20398;-75
2023/07/13 10:56:46;;;;;;;21.55;20.08;;;25.20;99.50;;;;;;5013832;28;20395;-75
2023/07/13 10:59:25;;;;;;;23.65;22.25;;;25.20;99.10;;;;;;5013225;28;20030;-74
2023/07/13 11:02:01;;;;;;;28.02;26.08;;;25.30;99.00;;;;;;5012424;28;20038;-74
2023/07/13 11:04:29;;;;;;;25.27;23.67;;;25.20;98.90;;;;;;5013331;28;20041;-75
2023/07/13 11:06:59;;;;;;;25.20;23.55;;;25.20;99.00;;;;;;5012468;28;20053;-75
2023/07/13 11:09:32;;;;;;;23.08;21.63;;;25.40;98.90;;;;;;5013217;28;20052;-75
2023/07/13 11:12:14;;;;;;;23.60;22.10;;;25.60;98.40;;;;;;5012407;28;20041;-75
2023/07/13 11:15:06;;;;;;;24.50;22.75;;;25.70;98.10;;;;;;5012521;28;20044;-75
2023/07/13 11:17:32;;;;;;;23.73;22.23;;;25.70;98.00;;;;;;5011800;28;20065;-75
2023/07/13 11:20:14;;;;;;;25.38;23.88;;;25.80;97.70;;;;;;5014157;28;20509;-75
2023/07/13 11:23:05;;;;;;;28.17;26.33;;;25.80;97.80;;;;;;5013998;28;20045;-75
2023/07/13 11:25:32;;;;;;;;;;;25.90;98.00;;;;;;5013802;28;20044;-75
2023/07/13 11:28:10;;;;;;;25.20;23.38;;;26.00;97.60;;;;;;5012651;28;19906;-75
2023/07/13 11:30:46;;;;;;;25.65;24.13;;;26.20;97.60;;;;;;5013128;28;20026;-75
2023/07/13 11:33:30;;;;;;;25.50;23.70;;;26.30;96.80;;;;;;5013914;28;20030;-74
2023/07/13 11:36:03;;;;;;;28.60;26.63;;;26.20;95.30;;;;;;5013240;28;20042;-75
2023/07/13 11:38:36;;;;;;;27.88;26.27;;;26.10;96.40;;;;;;5014324;28;20033;-75
2023/07/13 11:41:23;;;;;;;26.20;24.63;;;26.10;96.50;;;;;;5012032;28;20036;-75
2023/07/13 11:43:50;;;;;;;27.10;25.52;;;26.10;96.00;;;;;;5012366;28;20018;-75
2023/07/13 11:46:21;;;;;;;33.10;31.13;;;26.10;95.70;;;;;;5011652;28;20042;-75
2023/07/13 11:48:48;;;;;;;30.65;28.75;;;25.70;96.00;;;;;;4996131;28;20037;-75
2023/07/13 11:51:28;;;;;;;27.48;25.67;;;25.60;96.20;;;;;;5011104;28;20042;-75
2023/07/13 11:53:55;;;;;;;30.58;28.48;;;25.50;96.00;;;;;;5012197;28;20029;-75
2023/07/13 11:56:21;;;;;;;28.23;26.50;;;25.30;96.50;;;;;;5012697;28;20523;-75
2023/07/13 11:58:51;;;;;;;31.33;29.33;;;25.20;96.40;;;;;;5012089;28;20414;-75
2023/07/13 12:01:24;;;;;;;29.20;27.65;;;25.20;96.30;;;;;;5011332;28;20053;-75
2023/07/13 12:03:50;;;;;;;30.45;28.67;;;25.20;96.60;;;;;;5012079;28;20034;-75
2023/07/13 12:06:40;;;;;;;33.85;31.98;;;25.10;96.60;;;;;;5011543;28;20026;-75
2023/07/13 12:09:15;;;;;;;28.98;27.45;;;25.20;97.00;;;;;;5011815;28;20021;-76
2023/07/13 12:11:42;;;;;;;27.65;26.05;;;25.20;96.80;;;;;;5011173;28;20038;-75
2023/07/13 12:14:16;;;;;;;29.63;27.77;;;25.30;96.90;;;;;;5013117;28;20038;-75
2023/07/13 12:16:43;;;;;;;29.85;28.15;;;25.60;96.70;;;;;;5011056;28;20422;-75
2023/07/13 12:19:24;;;;;;;30.63;28.83;;;25.80;96.30;;;;;;5012014;28;20109;-75
2023/07/13 12:21:50;;;;;;;30.88;28.85;;;26.00;96.40;;;;;;5011523;28;20041;-75
2023/07/13 12:24:18;;;;;;;32.25;30.42;;;26.20;96.70;;;;;;5011408;28;20030;-75
2023/07/13 12:26:44;;;;;;;30.90;29.02;;;26.50;96.50;;;;;;5011416;28;20045;-75
2023/07/13 12:29:15;;;;;;;33.35;31.50;;;26.70;95.60;;;;;;5011760;28;20022;-75
2023/07/13 12:31:45;;;;;;;30.15;28.45;;;27.00;95.70;;;;;;5010898;28;20049;-75
2023/07/13 12:34:14;;;;;;;32.08;30.17;;;27.10;95.30;;;;;;5011706;28;20057;-75